Time;durP1;ratioP1;P1;durP2;ratioP2;P2;SDS_P1;SDS_P2;PMS_P1;PMS_P2;Temp;Humidity;BMP_temperature;BMP_pressure;BME280_temperature;BME280_humidity;BME280_pressure;Samples;Min_cycle;Max_cycle;Signal;HPM_P1;HPM_P2
2023/10/28 00:01:53;;;;;;;2.90;1.10;;;15.20;67.30;;;;;;5071119;28;20492;-48
2023/10/28 00:04:19;;;;;;;0.97;0.97;;;15.20;66.90;;;;;;5071333;28;20271;-48
2023/10/28 00:06:44;;;;;;;1.27;1.00;;;15.20;66.90;;;;;;5069432;28;20180;-54
2023/10/28 00:09:10;;;;;;;1.37;1.00;;;15.30;66.60;;;;;;5071489;28;20857;-49
2023/10/28 00:11:36;;;;;;;1.00;0.90;;;15.30;66.20;;;;;;5070799;28;20618;-51
2023/10/28 00:14:02;;;;;;;1.20;1.10;;;15.30;66.00;;;;;;5071387;28;20267;-49
2023/10/28 00:16:27;;;;;;;1.17;1.07;;;15.40;65.70;;;;;;5070750;28;20176;-52
2023/10/28 00:18:53;;;;;;;2.60;1.10;;;15.30;65.90;;;;;;5071190;28;20246;-54
2023/10/28 00:21:18;;;;;;;0.90;0.90;;;15.50;65.80;;;;;;5071248;28;20269;-52
2023/10/28 00:23:44;;;;;;;2.70;1.40;;;15.40;64.80;;;;;;5070690;28;20266;-49
2023/10/28 00:26:10;;;;;;;0.83;0.83;;;15.50;64.90;;;;;;5070992;28;20184;-53
2023/10/28 00:28:36;;;;;;;0.87;0.80;;;15.50;64.70;;;;;;5070963;28;20207;-54
2023/10/28 00:31:03;;;;;;;1.53;1.20;;;15.40;64.90;;;;;;5071315;28;20789;-53
2023/10/28 00:33:30;;;;;;;2.33;1.30;;;15.20;65.10;;;;;;5070264;28;20433;-49
2023/10/28 00:35:55;;;;;;;1.93;0.90;;;15.40;65.10;;;;;;5070905;28;20432;-50
2023/10/28 00:38:22;;;;;;;2.00;0.90;;;15.40;64.90;;;;;;5071177;28;21016;-51
2023/10/28 00:40:48;;;;;;;1.53;1.07;;;15.30;65.20;;;;;;5070888;28;20745;-51
2023/10/28 00:43:13;;;;;;;2.30;0.83;;;15.30;64.90;;;;;;5069918;28;20430;-51
2023/10/28 00:45:39;;;;;;;1.90;0.93;;;15.20;64.80;;;;;;5070920;28;20426;-52
2023/10/28 00:48:06;;;;;;;2.37;1.37;;;14.90;65.40;;;;;;5069928;28;20188;-51
2023/10/28 00:50:31;;;;;;;1.00;0.80;;;14.90;65.70;;;;;;5068820;28;20929;-50
2023/10/28 00:52:59;;;;;;;1.20;1.00;;;14.90;65.60;;;;;;5070015;28;20500;-48
2023/10/28 00:55:26;;;;;;;1.37;1.07;;;14.80;65.40;;;;;;5070430;28;20196;-49
2023/10/28 00:57:52;;;;;;;3.07;0.87;;;14.80;65.50;;;;;;5070065;28;20476;-49
2023/10/28 01:00:17;;;;;;;1.43;0.97;;;14.70;65.70;;;;;;5070145;28;21143;-49
2023/10/28 01:02:44;;;;;;;3.50;1.20;;;14.80;65.70;;;;;;5069626;28;20484;-48
2023/10/28 01:05:11;;;;;;;1.23;0.90;;;14.70;65.80;;;;;;5070726;28;20506;-49
2023/10/28 01:07:43;;;;;;;1.10;0.77;;;14.40;66.60;;;;;;5069754;28;20572;-50
2023/10/28 01:10:09;;;;;;;1.27;1.00;;;14.60;66.60;;;;;;5070192;28;21024;-48
2023/10/28 01:12:35;;;;;;;0.80;0.80;;;14.40;66.60;;;;;;5069378;28;20580;-48
2023/10/28 01:15:01;;;;;;;1.10;0.90;;;14.50;66.70;;;;;;5070430;28;20434;-52
2023/10/28 01:17:27;;;;;;;1.53;0.80;;;14.70;66.80;;;;;;5069232;28;20187;-54
2023/10/28 01:19:53;;;;;;;2.57;0.97;;;14.80;65.60;;;;;;5069653;28;20446;-49
2023/10/28 01:22:23;;;;;;;1.23;0.90;;;14.70;65.70;;;;;;5069213;28;20301;-51
2023/10/28 01:24:49;;;;;;;0.80;0.80;;;14.70;65.60;;;;;;5067008;28;20290;-49
2023/10/28 01:27:15;;;;;;;1.50;1.40;;;14.80;66.10;;;;;;5068824;28;21057;-54
2023/10/28 01:29:41;;;;;;;1.00;0.90;;;14.90;65.20;;;;;;5069807;28;20441;-52
2023/10/28 01:32:07;;;;;;;2.80;0.93;;;14.70;65.40;;;;;;5069126;28;20426;-48
2023/10/28 01:34:43;;;;;;;1.33;1.03;;;14.70;65.70;;;;;;5070052;28;20195;-50
2023/10/28 01:37:08;;;;;;;4.30;1.13;;;14.50;65.50;;;;;;5068892;28;20418;-53
2023/10/28 01:39:34;;;;;;;3.10;0.90;;;14.50;66.20;;;;;;5069468;28;20810;-51
2023/10/28 01:41:59;;;;;;;2.73;0.90;;;14.50;66.00;;;;;;5069067;28;20715;-47
2023/10/28 01:44:25;;;;;;;0.73;0.73;;;14.60;66.10;;;;;;5069570;28;20286;-48
2023/10/28 01:46:50;;;;;;;2.93;0.90;;;14.50;65.70;;;;;;5068820;28;20175;-48
2023/10/28 01:49:16;;;;;;;2.20;1.13;;;14.30;65.90;;;;;;5069175;28;20204;-49
2023/10/28 01:51:41;;;;;;;0.90;0.90;;;14.40;66.60;;;;;;5068854;28;20261;-50
2023/10/28 01:54:07;;;;;;;1.40;0.90;;;14.60;66.30;;;;;;5069074;28;20630;-50
2023/10/28 01:56:32;;;;;;;2.53;1.37;;;14.70;65.50;;;;;;5068638;28;20270;-46
2023/10/28 01:58:58;;;;;;;2.60;0.90;;;14.60;64.90;;;;;;5069487;28;20628;-48
2023/10/28 02:01:25;;;;;;;2.00;0.97;;;14.50;65.70;;;;;;5068819;28;20215;-51
2023/10/28 02:03:51;;;;;;;2.10;0.97;;;14.40;65.50;;;;;;5068590;28;20192;-47
2023/10/28 02:06:17;;;;;;;1.10;1.00;;;14.50;65.80;;;;;;5068864;28;20457;-49
2023/10/28 02:08:42;;;;;;;2.40;1.00;;;14.30;66.00;;;;;;5068572;28;20707;-46
2023/10/28 02:11:08;;;;;;;1.23;0.87;;;14.30;66.20;;;;;;5068162;28;20182;-47
2023/10/28 02:13:35;;;;;;;1.47;0.80;;;14.40;66.40;;;;;;5068241;28;20179;-49
2023/10/28 02:16:01;;;;;;;3.07;0.80;;;14.70;65.90;;;;;;5068860;28;20199;-49
2023/10/28 02:18:26;;;;;;;1.13;0.83;;;14.60;65.30;;;;;;5068115;28;20442;-49
2023/10/28 02:20:54;;;;;;;1.00;0.80;;;14.60;65.30;;;;;;5068903;28;20273;-49
2023/10/28 02:23:19;;;;;;;1.60;1.00;;;14.50;65.60;;;;;;5067960;28;20180;-46
2023/10/28 02:25:45;;;;;;;2.63;1.40;;;14.40;65.40;;;;;;5062770;28;20422;-46
2023/10/28 02:28:11;;;;;;;2.40;1.03;;;14.40;65.80;;;;;;5067627;28;20257;-47
2023/10/28 02:30:39;;;;;;;1.43;1.10;;;14.40;65.70;;;;;;5068645;28;20188;-48
2023/10/28 02:33:04;;;;;;;1.67;1.00;;;14.40;65.90;;;;;;5068041;28;20192;-47
2023/10/28 02:35:30;;;;;;;1.60;1.00;;;14.50;65.90;;;;;;5068822;28;20809;-49
2023/10/28 02:37:55;;;;;;;1.77;0.90;;;14.40;65.20;;;;;;5067839;28;20192;-47
2023/10/28 02:40:21;;;;;;;4.17;1.10;;;14.40;65.90;;;;;;5068460;28;20209;-47
2023/10/28 02:42:46;;;;;;;2.73;1.17;;;14.60;65.30;;;;;;5067936;28;20187;-48
2023/10/28 02:45:12;;;;;;;2.17;1.00;;;14.60;65.90;;;;;;5068625;28;20184;-47
2023/10/28 02:47:38;;;;;;;1.23;0.97;;;14.80;64.50;;;;;;5067708;28;20183;-47
2023/10/28 02:50:04;;;;;;;1.90;0.90;;;14.60;64.70;;;;;;5068441;28;20203;-49
2023/10/28 02:52:30;;;;;;;2.23;1.10;;;14.50;65.10;;;;;;5067698;28;20226;-47
2023/10/28 02:54:55;;;;;;;0.90;0.90;;;14.60;65.80;;;;;;5068426;28;20875;-49
2023/10/28 02:57:21;;;;;;;2.20;1.33;;;14.80;65.00;;;;;;5067637;28;20180;-48
2023/10/28 02:59:46;;;;;;;1.90;1.00;;;14.80;64.50;;;;;;5068282;28;20212;-49
2023/10/28 03:02:12;;;;;;;2.20;1.47;;;14.70;64.60;;;;;;5067562;28;20186;-48
2023/10/28 03:04:37;;;;;;;1.70;1.17;;;14.60;64.90;;;;;;5068346;28;20179;-49
2023/10/28 03:07:03;;;;;;;1.70;1.30;;;14.60;64.90;;;;;;5067495;28;20184;-47
2023/10/28 03:09:30;;;;;;;1.13;1.03;;;14.70;64.80;;;;;;5068321;28;20204;-50
2023/10/28 03:11:56;;;;;;;4.33;1.20;;;14.70;64.60;;;;;;5067628;28;20263;-47
2023/10/28 03:14:22;;;;;;;1.93;1.13;;;14.60;64.50;;;;;;5068163;28;20560;-47
2023/10/28 03:16:47;;;;;;;2.03;1.00;;;14.70;64.80;;;;;;5067537;28;20196;-50
2023/10/28 03:19:13;;;;;;;2.60;1.23;;;14.50;64.80;;;;;;5068404;28;20430;-49
2023/10/28 03:21:39;;;;;;;2.37;1.10;;;14.50;64.80;;;;;;5066850;28;20636;-47
2023/10/28 03:24:06;;;;;;;3.50;1.20;;;14.60;64.60;;;;;;5071738;28;20675;-46
2023/10/28 03:26:32;;;;;;;3.10;1.40;;;14.60;64.30;;;;;;5071576;28;20426;-49
2023/10/28 03:28:59;;;;;;;1.50;1.33;;;14.60;64.60;;;;;;5072430;28;20518;-48
2023/10/28 03:31:26;;;;;;;4.60;1.67;;;14.40;64.10;;;;;;5071828;28;20422;-53
2023/10/28 03:33:51;;;;;;;1.53;1.10;;;14.40;64.40;;;;;;5071405;28;20422;-49
2023/10/28 03:36:17;;;;;;;2.57;1.10;;;14.40;64.60;;;;;;5071802;28;20418;-49
2023/10/28 03:38:43;;;;;;;2.53;1.40;;;14.60;64.30;;;;;;5071589;28;20740;-50
2023/10/28 03:41:10;;;;;;;4.70;1.57;;;14.60;64.00;;;;;;5071832;28;20249;-49
2023/10/28 03:43:36;;;;;;;4.57;2.30;;;14.50;64.10;;;;;;5070896;28;20659;-49
2023/10/28 03:46:03;;;;;;;3.83;1.73;;;14.60;64.10;;;;;;5071512;28;20410;-50
2023/10/28 03:48:29;;;;;;;2.80;1.50;;;14.60;64.00;;;;;;5071410;28;20446;-48
2023/10/28 03:50:58;;;;;;;4.80;1.80;;;14.70;64.00;;;;;;5071486;28;20499;-50
2023/10/28 03:53:24;;;;;;;4.23;2.53;;;14.60;63.60;;;;;;5070690;28;20430;-49
2023/10/28 03:55:49;;;;;;;3.73;1.70;;;14.40;64.30;;;;;;5071652;28;20461;-47
2023/10/28 03:58:15;;;;;;;7.07;2.00;;;14.50;64.50;;;;;;5071164;28;20231;-51
2023/10/28 04:00:40;;;;;;;5.10;1.47;;;14.50;64.50;;;;;;5071052;28;20208;-49
2023/10/28 04:03:06;;;;;;;7.27;1.60;;;14.40;64.70;;;;;;5070817;28;20176;-48
2023/10/28 04:05:31;;;;;;;3.67;1.27;;;14.30;65.50;;;;;;5071734;28;20236;-48
2023/10/28 04:07:57;;;;;;;3.00;1.50;;;14.30;64.80;;;;;;5070643;28;20210;-54
2023/10/28 04:10:23;;;;;;;3.13;1.43;;;14.40;64.80;;;;;;5070894;28;20186;-53
2023/10/28 04:12:48;;;;;;;5.47;1.50;;;14.50;64.50;;;;;;5070790;28;20245;-48
2023/10/28 04:15:16;;;;;;;5.90;1.50;;;14.50;64.70;;;;;;5071328;28;20183;-52
2023/10/28 04:17:42;;;;;;;4.17;1.60;;;14.50;64.50;;;;;;5070258;28;20266;-49
2023/10/28 04:20:08;;;;;;;1.97;1.20;;;14.40;64.10;;;;;;5070966;28;20910;-50
2023/10/28 04:22:34;;;;;;;6.33;1.33;;;14.50;64.00;;;;;;5070447;28;20279;-51
2023/10/28 04:24:59;;;;;;;3.77;1.20;;;14.60;64.10;;;;;;5071466;28;20510;-53
2023/10/28 04:27:25;;;;;;;2.30;1.20;;;14.60;63.60;;;;;;5070001;28;20192;-52
2023/10/28 04:29:51;;;;;;;3.80;1.40;;;14.80;63.50;;;;;;5071044;28;20226;-54
2023/10/28 04:32:20;;;;;;;3.43;1.30;;;15.00;62.60;;;;;;5070216;28;20237;-52
2023/10/28 04:34:45;;;;;;;6.57;1.63;;;15.00;62.00;;;;;;5069595;28;20566;-53
2023/10/28 04:37:12;;;;;;;3.00;1.67;;;15.00;62.40;;;;;;5070172;28;20430;-53
2023/10/28 04:39:40;;;;;;;3.30;1.87;;;14.90;61.80;;;;;;5070744;28;20587;-53
2023/10/28 04:42:07;;;;;;;2.53;1.27;;;15.00;62.40;;;;;;5069717;28;20981;-47
2023/10/28 04:44:33;;;;;;;6.47;1.83;;;15.20;61.70;;;;;;5070839;28;21020;-51
2023/10/28 04:46:59;;;;;;;2.03;1.07;;;15.20;60.90;;;;;;5069902;28;20509;-54
2023/10/28 04:49:24;;;;;;;2.83;1.90;;;15.10;60.70;;;;;;5070674;28;20295;-47
2023/10/28 04:51:50;;;;;;;5.60;1.93;;;15.20;60.50;;;;;;5070095;28;20230;-50
2023/10/28 04:54:15;;;;;;;4.20;1.20;;;15.20;60.50;;;;;;5070744;28;20204;-54
2023/10/28 04:56:41;;;;;;;1.60;1.50;;;15.10;60.80;;;;;;5069929;28;20695;-50
2023/10/28 04:59:07;;;;;;;2.73;1.63;;;15.20;60.80;;;;;;5070929;28;20204;-46
2023/10/28 05:01:32;;;;;;;2.60;1.20;;;15.30;60.70;;;;;;5069627;28;20215;-48
2023/10/28 05:03:58;;;;;;;2.80;1.10;;;15.30;60.10;;;;;;5070695;28;20457;-49
2023/10/28 05:06:23;;;;;;;3.53;1.33;;;15.40;60.10;;;;;;5069843;28;20180;-47
2023/10/28 05:08:49;;;;;;;1.70;1.30;;;15.20;60.00;;;;;;5070089;28;20215;-48
2023/10/28 05:11:16;;;;;;;1.97;1.10;;;15.30;60.00;;;;;;5070202;28;20567;-48
2023/10/28 05:13:42;;;;;;;2.63;1.30;;;15.10;59.50;;;;;;5069307;28;20209;-48
2023/10/28 05:16:09;;;;;;;3.40;1.20;;;14.90;60.30;;;;;;5069642;28;20415;-47
2023/10/28 05:18:35;;;;;;;2.20;1.40;;;14.80;60.80;;;;;;5069597;28;20458;-48
2023/10/28 05:21:01;;;;;;;3.47;1.17;;;14.90;61.30;;;;;;5070148;28;20844;-47
2023/10/28 05:23:27;;;;;;;2.67;1.47;;;15.00;60.40;;;;;;5069124;28;20427;-50
2023/10/28 05:25:53;;;;;;;1.13;1.03;;;14.90;60.10;;;;;;5069737;28;20184;-47
2023/10/28 05:28:19;;;;;;;1.30;1.10;;;14.80;60.20;;;;;;5069263;28;20280;-46
2023/10/28 05:30:45;;;;;;;6.60;1.10;;;14.90;60.10;;;;;;5063451;28;20512;-46
2023/10/28 05:33:11;;;;;;;3.97;1.17;;;14.90;60.20;;;;;;5068903;28;20252;-48
2023/10/28 05:35:37;;;;;;;4.30;1.53;;;15.00;60.10;;;;;;5069994;28;20418;-50
2023/10/28 05:38:02;;;;;;;2.30;1.07;;;15.00;59.70;;;;;;5068970;28;20188;-48
2023/10/28 05:40:28;;;;;;;4.53;1.03;;;15.10;59.40;;;;;;5069576;28;20826;-51
2023/10/28 05:42:54;;;;;;;2.77;1.13;;;15.30;59.30;;;;;;5068883;28;20188;-48
2023/10/28 05:45:20;;;;;;;3.20;1.03;;;15.40;59.00;;;;;;5069421;28;20198;-47
2023/10/28 05:47:46;;;;;;;2.40;1.23;;;15.50;58.80;;;;;;5067881;28;20430;-50
2023/10/28 05:50:12;;;;;;;4.50;1.17;;;15.60;58.70;;;;;;5069404;28;20214;-50
2023/10/28 05:52:41;;;;;;;2.37;1.10;;;15.50;58.70;;;;;;5068566;28;20852;-48
2023/10/28 05:55:12;;;;;;;2.40;1.43;;;15.60;58.60;;;;;;5069315;28;20721;-50
2023/10/28 05:57:40;;;;;;;3.03;1.00;;;15.60;58.60;;;;;;5068495;28;20440;-48
2023/10/28 06:00:10;;;;;;;2.60;1.40;;;15.50;58.80;;;;;;5069072;28;20445;-48
2023/10/28 06:02:39;;;;;;;5.97;1.37;;;15.50;58.70;;;;;;5068440;28;20414;-47
2023/10/28 06:05:05;;;;;;;3.30;1.17;;;15.50;58.80;;;;;;5069357;28;20422;-48
2023/10/28 06:07:31;;;;;;;4.30;1.20;;;15.50;58.80;;;;;;5068259;28;20498;-49
2023/10/28 06:09:57;;;;;;;1.73;1.10;;;15.50;58.80;;;;;;5068994;28;20540;-48
2023/10/28 06:12:23;;;;;;;3.70;1.70;;;15.50;58.90;;;;;;5068323;28;20884;-49
2023/10/28 06:14:48;;;;;;;2.57;1.20;;;15.50;58.90;;;;;;5069238;28;20203;-50
2023/10/28 06:17:13;;;;;;;1.93;0.97;;;15.30;58.90;;;;;;5068040;28;20275;-48
2023/10/28 06:19:42;;;;;;;6.63;1.40;;;15.10;59.40;;;;;;5068905;28;20295;-49
2023/10/28 06:22:08;;;;;;;2.80;1.30;;;14.90;59.60;;;;;;5068034;28;20215;-49
2023/10/28 06:24:34;;;;;;;1.90;1.20;;;14.80;60.30;;;;;;5068932;28;20796;-48
2023/10/28 06:27:00;;;;;;;3.60;1.40;;;14.90;60.20;;;;;;5068096;28;20426;-49
2023/10/28 06:29:26;;;;;;;5.87;1.30;;;15.20;59.80;;;;;;5068635;28;20434;-49
2023/10/28 06:31:52;;;;;;;4.07;1.53;;;15.30;59.20;;;;;;5068149;28;20206;-48
2023/10/28 06:34:17;;;;;;;4.77;2.10;;;15.40;58.90;;;;;;5068741;28;20422;-50
2023/10/28 06:36:43;;;;;;;7.23;1.67;;;15.40;58.80;;;;;;5068736;28;20450;-51
2023/10/28 06:39:08;;;;;;;3.60;1.40;;;15.40;58.90;;;;;;5068923;28;20406;-49
2023/10/28 06:41:34;;;;;;;4.00;1.37;;;15.40;58.80;;;;;;5067675;28;20608;-51
2023/10/28 06:44:05;;;;;;;4.03;1.80;;;15.40;58.80;;;;;;5068828;28;20571;-48
2023/10/28 06:46:31;;;;;;;3.07;1.30;;;15.50;58.80;;;;;;5067946;28;20465;-47
2023/10/28 06:48:57;;;;;;;3.13;1.10;;;15.50;58.50;;;;;;5068905;28;20454;-51
2023/10/28 06:51:22;;;;;;;2.57;1.13;;;15.60;58.40;;;;;;5068243;28;20434;-49
2023/10/28 06:53:48;;;;;;;1.73;1.50;;;15.50;58.50;;;;;;5068112;28;20192;-51
2023/10/28 06:56:15;;;;;;;2.87;1.20;;;15.50;58.70;;;;;;5068588;28;20182;-46
2023/10/28 06:58:41;;;;;;;2.30;1.10;;;15.40;58.80;;;;;;5067990;28;20246;-49
2023/10/28 07:01:09;;;;;;;2.03;1.20;;;15.40;58.60;;;;;;5068672;28;20485;-53
2023/10/28 07:03:38;;;;;;;2.13;1.20;;;15.50;58.50;;;;;;5067607;28;20437;-49
2023/10/28 07:06:04;;;;;;;2.93;1.13;;;15.60;58.40;;;;;;5068374;28;20485;-49
2023/10/28 07:08:30;;;;;;;2.33;1.40;;;15.60;58.20;;;;;;5068125;28;20453;-47
2023/10/28 07:10:57;;;;;;;7.13;1.50;;;15.60;58.10;;;;;;5068375;28;20459;-48
2023/10/28 07:13:22;;;;;;;2.60;1.23;;;15.60;58.20;;;;;;5067732;28;20418;-54
2023/10/28 07:15:48;;;;;;;1.97;1.40;;;15.50;57.90;;;;;;5068810;28;20422;-49
2023/10/28 07:18:14;;;;;;;2.97;1.30;;;15.50;58.00;;;;;;5067709;28;20227;-54
2023/10/28 07:20:40;;;;;;;2.40;1.30;;;15.60;57.90;;;;;;5068532;28;20250;-49
2023/10/28 07:23:06;;;;;;;4.30;1.67;;;15.60;57.70;;;;;;5067668;28;20176;-52
2023/10/28 07:25:31;;;;;;;1.73;1.23;;;15.70;57.80;;;;;;5068740;28;20409;-54
2023/10/28 07:27:57;;;;;;;2.87;1.10;;;15.80;57.70;;;;;;5067460;28;20237;-49
2023/10/28 07:30:24;;;;;;;2.07;1.40;;;16.00;58.00;;;;;;5068138;28;20199;-49
2023/10/28 07:32:50;;;;;;;2.00;1.50;;;16.20;57.10;;;;;;5067476;28;20194;-48
2023/10/28 07:35:18;;;;;;;3.03;1.13;;;16.60;56.70;;;;;;5068332;28;20422;-50
2023/10/28 07:37:43;;;;;;;6.27;1.40;;;16.80;55.50;;;;;;5067329;28;20184;-50
2023/10/28 07:40:11;;;;;;;2.90;1.60;;;16.90;55.60;;;;;;5067703;28;20446;-49
2023/10/28 07:42:37;;;;;;;4.50;1.20;;;17.00;55.10;;;;;;5067147;28;20184;-49
2023/10/28 07:45:04;;;;;;;2.97;1.37;;;16.90;55.10;;;;;;5068331;28;20502;-47
2023/10/28 07:47:31;;;;;;;1.73;1.27;;;17.10;54.90;;;;;;5067075;28;20191;-49
2023/10/28 07:49:57;;;;;;;1.63;1.17;;;17.30;54.80;;;;;;5067961;28;20453;-47
2023/10/28 07:52:22;;;;;;;1.67;1.20;;;17.20;54.50;;;;;;5067153;28;21046;-47
2023/10/28 07:54:48;;;;;;;1.47;1.20;;;17.20;54.40;;;;;;5068064;28;20631;-49
2023/10/28 07:57:13;;;;;;;1.47;1.20;;;17.10;54.40;;;;;;5066847;28;20269;-49
2023/10/28 07:59:39;;;;;;;1.47;1.10;;;17.10;54.30;;;;;;5067725;28;20200;-47
2023/10/28 08:02:05;;;;;;;3.50;1.33;;;16.80;54.80;;;;;;5067071;28;20675;-47
2023/10/28 08:04:30;;;;;;;4.40;1.23;;;16.80;55.50;;;;;;5067832;28;20176;-50
2023/10/28 08:06:56;;;;;;;2.30;1.20;;;16.60;55.70;;;;;;5066971;28;20414;-55
2023/10/28 08:09:22;;;;;;;2.53;1.83;;;16.80;56.20;;;;;;5068108;28;20261;-49
2023/10/28 08:11:48;;;;;;;3.90;1.33;;;16.90;56.10;;;;;;5070558;28;20543;-53
2023/10/28 08:14:14;;;;;;;4.77;1.53;;;17.10;56.00;;;;;;5071513;28;20426;-53
2023/10/28 08:16:39;;;;;;;4.23;1.40;;;17.00;55.60;;;;;;5070225;28;20558;-49
2023/10/28 08:19:06;;;;;;;2.83;1.50;;;16.70;55.80;;;;;;5071527;28;20310;-49
2023/10/28 08:21:32;;;;;;;4.80;1.10;;;16.50;55.70;;;;;;5070140;28;20208;-49
2023/10/28 08:23:58;;;;;;;1.60;1.30;;;16.60;56.20;;;;;;5071419;28;20429;-47
2023/10/28 08:26:24;;;;;;;9.17;1.50;;;16.70;56.30;;;;;;5070502;28;21000;-50
2023/10/28 08:28:50;;;;;;;2.77;1.30;;;16.50;55.90;;;;;;5070775;28;20200;-49
2023/10/28 08:31:17;;;;;;;1.33;1.10;;;16.60;56.40;;;;;;5070590;28;20955;-50
2023/10/28 08:33:42;;;;;;;2.90;1.17;;;16.70;56.40;;;;;;5070495;28;20444;-48
2023/10/28 08:36:09;;;;;;;2.63;1.57;;;16.60;56.50;;;;;;5070644;28;20434;-49
2023/10/28 08:38:34;;;;;;;6.30;1.30;;;16.70;56.40;;;;;;5070440;28;20204;-48
2023/10/28 08:41:02;;;;;;;2.43;1.30;;;16.70;56.30;;;;;;5070831;28;20836;-48
2023/10/28 08:43:31;;;;;;;1.53;1.07;;;16.80;56.10;;;;;;5069843;28;20191;-49
2023/10/28 08:45:56;;;;;;;6.30;1.43;;;17.00;56.30;;;;;;5070528;28;20430;-49
2023/10/28 08:48:22;;;;;;;3.47;1.50;;;17.30;56.00;;;;;;5070244;28;20739;-49
2023/10/28 08:51:00;;;;;;;2.10;1.30;;;17.30;55.20;;;;;;5070500;28;20203;-49
2023/10/28 08:53:27;;;;;;;4.00;1.20;;;17.50;55.00;;;;;;5069567;28;20497;-47
2023/10/28 08:55:53;;;;;;;2.90;1.63;;;17.50;54.40;;;;;;5070516;28;20426;-49
2023/10/28 08:58:20;;;;;;;3.97;0.93;;;17.60;54.60;;;;;;5070111;28;20438;-49
2023/10/28 09:00:47;;;;;;;3.50;1.20;;;17.60;54.20;;;;;;5069446;28;20519;-50
2023/10/28 09:03:15;;;;;;;1.27;0.90;;;17.50;54.20;;;;;;5069755;28;20500;-49
2023/10/28 09:05:41;;;;;;;5.00;1.10;;;17.60;54.20;;;;;;5070597;28;20447;-49
2023/10/28 09:08:06;;;;;;;2.50;1.20;;;17.80;54.10;;;;;;5069289;28;20430;-47
2023/10/28 09:10:34;;;;;;;7.13;1.70;;;17.80;53.60;;;;;;5070221;28;20571;-49
2023/10/28 09:13:06;;;;;;;5.87;1.50;;;17.60;52.80;;;;;;5069610;28;20237;-48
2023/10/28 09:15:32;;;;;;;4.30;1.37;;;17.60;53.40;;;;;;5070461;28;20406;-47
2023/10/28 09:17:58;;;;;;;4.77;1.70;;;17.50;53.30;;;;;;5069364;28;20421;-49
2023/10/28 09:20:24;;;;;;;1.70;1.20;;;17.70;53.10;;;;;;5069483;28;20223;-47
2023/10/28 09:22:49;;;;;;;1.70;1.10;;;17.80;53.10;;;;;;5069258;28;20441;-48
2023/10/28 09:25:15;;;;;;;4.00;1.10;;;17.90;52.70;;;;;;5070217;28;20933;-47
2023/10/28 09:27:41;;;;;;;5.00;1.30;;;18.00;52.30;;;;;;5069069;28;20224;-51
2023/10/28 09:30:08;;;;;;;2.07;1.13;;;18.20;52.40;;;;;;5069725;28;20200;-49
2023/10/28 09:32:34;;;;;;;2.80;1.20;;;18.20;51.80;;;;;;5068952;28;20431;-48
2023/10/28 09:35:07;;;;;;;5.10;2.20;;;18.10;52.20;;;;;;5070209;28;20422;-49
2023/10/28 09:37:38;;;;;;;6.50;1.30;;;18.10;51.70;;;;;;5068920;28;20407;-48
2023/10/28 09:40:05;;;;;;;4.17;1.37;;;18.00;52.10;;;;;;5069609;28;20442;-47
2023/10/28 09:42:32;;;;;;;5.03;1.03;;;17.80;51.90;;;;;;5068290;28;20422;-49
2023/10/28 09:45:05;;;;;;;4.20;1.47;;;17.90;52.10;;;;;;5069889;28;20419;-48
2023/10/28 09:47:47;;;;;;;4.17;1.43;;;17.80;52.00;;;;;;5068750;28;20414;-49
2023/10/28 09:50:14;;;;;;;3.17;1.17;;;18.20;51.90;;;;;;5069502;28;20455;-48
2023/10/28 09:52:48;;;;;;;3.83;1.73;;;18.20;51.60;;;;;;5068346;28;20422;-48
2023/10/28 09:55:15;;;;;;;4.03;1.40;;;18.50;51.90;;;;;;5069606;28;20615;-49
2023/10/28 09:57:42;;;;;;;3.80;1.37;;;18.50;51.00;;;;;;5068536;28;20429;-49
2023/10/28 10:00:20;;;;;;;5.20;1.50;;;18.40;51.20;;;;;;5069090;28;20441;-50
2023/10/28 10:03:13;;;;;;;5.57;1.23;;;18.20;50.90;;;;;;5062050;28;20456;-49
2023/10/28 10:05:44;;;;;;;3.63;1.50;;;18.00;51.50;;;;;;5069267;28;20426;-48
2023/10/28 10:08:25;;;;;;;4.70;1.40;;;18.10;51.70;;;;;;5068302;28;20893;-47
2023/10/28 10:10:57;;;;;;;2.83;1.33;;;18.10;51.30;;;;;;5063304;28;20479;-48
2023/10/28 10:13:23;;;;;;;1.80;1.20;;;18.30;51.30;;;;;;5068299;28;20793;-49
2023/10/28 10:15:51;;;;;;;3.27;1.20;;;18.10;51.20;;;;;;5069283;28;20827;-46
2023/10/28 10:18:30;;;;;;;2.43;1.30;;;18.20;51.10;;;;;;5068566;28;20249;-47
2023/10/28 10:21:09;;;;;;;2.87;1.27;;;18.50;51.50;;;;;;5063611;28;20470;-48
2023/10/28 10:23:46;;;;;;;2.67;1.20;;;18.70;50.70;;;;;;5068372;28;20410;-47
2023/10/28 10:26:32;;;;;;;3.70;1.13;;;18.70;50.40;;;;;;5068839;28;20472;-49
2023/10/28 10:28:59;;;;;;;15.87;2.63;;;19.00;50.40;;;;;;5064382;28;20529;-49
2023/10/28 10:31:30;;;;;;;2.97;1.57;;;18.90;49.30;;;;;;5068221;28;20430;-48
2023/10/28 10:34:07;;;;;;;3.33;1.20;;;19.10;49.30;;;;;;5068234;28;20505;-50
2023/10/28 10:36:40;;;;;;;3.00;1.33;;;19.10;48.70;;;;;;5067896;28;20406;-47
2023/10/28 10:39:11;;;;;;;2.20;1.20;;;19.10;49.00;;;;;;5068832;28;20434;-49
2023/10/28 10:41:37;;;;;;;3.97;1.57;;;19.00;48.80;;;;;;5067440;28;20498;-47
2023/10/28 10:44:34;;;;;;;4.70;1.30;;;19.00;49.80;;;;;;5068523;28;20945;-47
2023/10/28 10:47:00;;;;;;;6.30;1.90;;;19.10;49.00;;;;;;5063403;28;20413;-48
2023/10/28 10:49:26;;;;;;;7.13;2.10;;;18.80;48.90;;;;;;5068428;28;20454;-48
2023/10/28 10:51:52;;;;;;;3.13;1.40;;;18.80;49.40;;;;;;5067802;28;20861;-47
2023/10/28 10:54:19;;;;;;;3.73;1.50;;;18.90;49.60;;;;;;5068564;28;20975;-48
2023/10/28 10:56:45;;;;;;;2.13;1.40;;;18.90;49.20;;;;;;5067484;28;20439;-50
2023/10/28 10:59:11;;;;;;;7.13;1.47;;;19.00;49.70;;;;;;5068526;28;20440;-47
2023/10/28 11:01:40;;;;;;;3.07;1.40;;;19.10;50.20;;;;;;5067354;28;20474;-48
2023/10/28 11:04:07;;;;;;;3.57;1.63;;;19.40;49.20;;;;;;5068516;28;20982;-48
2023/10/28 11:06:34;;;;;;;3.50;1.30;;;19.60;48.90;;;;;;5067563;28;20422;-49
2023/10/28 11:09:03;;;;;;;2.07;1.30;;;19.80;48.90;;;;;;5068706;28;20898;-48
2023/10/28 11:11:29;;;;;;;4.30;1.57;;;20.10;48.20;;;;;;5067267;28;20409;-48
2023/10/28 11:13:56;;;;;;;4.23;1.40;;;19.90;46.60;;;;;;5068472;28;20434;-47
2023/10/28 11:16:23;;;;;;;3.00;1.30;;;19.90;46.60;;;;;;5067874;28;20426;-49
2023/10/28 11:18:49;;;;;;;5.03;1.27;;;19.90;46.80;;;;;;5068013;28;20442;-48
2023/10/28 11:21:15;;;;;;;7.93;1.50;;;19.50;47.20;;;;;;5067357;28;20557;-49
2023/10/28 11:23:41;;;;;;;4.93;1.47;;;19.60;47.90;;;;;;5067965;28;21034;-49
2023/10/28 11:26:07;;;;;;;2.30;1.47;;;19.70;47.80;;;;;;5067973;28;20410;-49
2023/10/28 11:28:33;;;;;;;3.47;2.00;;;19.70;48.30;;;;;;5067791;28;20227;-51
2023/10/28 11:30:59;;;;;;;2.30;1.37;;;19.60;47.90;;;;;;5067647;28;20271;-49
2023/10/28 11:33:28;;;;;;;5.50;1.27;;;19.40;47.50;;;;;;5067660;28;20510;-47
2023/10/28 11:35:53;;;;;;;3.90;1.50;;;19.30;48.10;;;;;;5067960;28;20267;-49
2023/10/28 11:38:19;;;;;;;5.07;1.37;;;19.40;48.50;;;;;;5067646;28;20530;-49
2023/10/28 11:40:45;;;;;;;3.90;1.83;;;19.20;48.50;;;;;;5067637;28;20215;-49
2023/10/28 11:43:15;;;;;;;6.30;1.70;;;19.10;48.90;;;;;;5067200;28;20430;-49
2023/10/28 11:45:41;;;;;;;3.33;1.70;;;19.10;48.50;;;;;;5070687;28;20192;-47
2023/10/28 11:48:08;;;;;;;4.50;1.93;;;18.80;48.30;;;;;;5070934;28;20426;-49
2023/10/28 11:50:34;;;;;;;2.77;1.60;;;18.90;48.70;;;;;;5070074;28;20188;-48
2023/10/28 11:53:00;;;;;;;6.10;2.03;;;19.00;48.60;;;;;;5071254;28;20442;-49
2023/10/28 11:55:25;;;;;;;2.23;1.27;;;19.00;49.30;;;;;;5071530;28;20960;-49
2023/10/28 11:57:51;;;;;;;3.70;1.17;;;19.00;49.50;;;;;;5070945;28;20253;-47
2023/10/28 12:00:17;;;;;;;4.23;1.20;;;18.90;48.80;;;;;;5071462;28;20180;-50
2023/10/28 12:02:43;;;;;;;2.23;1.50;;;19.00;48.90;;;;;;5070514;28;20271;-48
2023/10/28 12:05:09;;;;;;;2.23;1.33;;;19.00;48.70;;;;;;5071624;28;20445;-47
2023/10/28 12:07:35;;;;;;;2.73;1.30;;;19.00;48.90;;;;;;5070714;28;20422;-50
2023/10/28 12:10:06;;;;;;;6.00;1.63;;;19.10;48.60;;;;;;5071440;28;20434;-50
2023/10/28 12:12:32;;;;;;;2.70;1.57;;;19.00;48.70;;;;;;5070786;28;20183;-48
2023/10/28 12:14:57;;;;;;;4.83;1.77;;;18.80;48.80;;;;;;5071291;28;20437;-46
2023/10/28 12:17:23;;;;;;;3.60;1.80;;;18.90;49.20;;;;;;5070445;28;20180;-50
2023/10/28 12:19:49;;;;;;;4.33;1.70;;;19.10;48.90;;;;;;5071114;28;20223;-46
2023/10/28 12:22:14;;;;;;;2.13;1.30;;;18.90;48.70;;;;;;5070275;28;20212;-49
2023/10/28 12:24:40;;;;;;;7.00;1.87;;;19.00;49.30;;;;;;5071061;28;20184;-49
2023/10/28 12:27:05;;;;;;;2.90;1.20;;;19.20;49.90;;;;;;5070470;28;20176;-49
2023/10/28 12:29:31;;;;;;;2.70;1.10;;;19.10;49.90;;;;;;5071133;28;20210;-49
2023/10/28 12:31:56;;;;;;;2.77;1.20;;;19.10;49.80;;;;;;5070128;28;20180;-50
2023/10/28 12:34:22;;;;;;;5.37;1.70;;;19.00;49.00;;;;;;5071038;28;20207;-48
2023/10/28 12:36:48;;;;;;;3.50;1.60;;;18.60;49.70;;;;;;5070365;28;20184;-50
2023/10/28 12:39:16;;;;;;;5.77;1.90;;;18.60;50.10;;;;;;5070959;28;20261;-48
2023/10/28 12:41:43;;;;;;;6.83;1.77;;;18.80;50.70;;;;;;5070600;28;20718;-51
2023/10/28 12:44:09;;;;;;;3.60;1.67;;;19.00;50.70;;;;;;5071101;28;20937;-53
2023/10/28 12:46:35;;;;;;;3.97;1.50;;;18.90;50.00;;;;;;5070049;28;20513;-51